createdAt,value
2018-06-16T00:00:53.294Z,10.87
2018-06-16T00:03:20.699Z,12.53
2018-06-16T00:05:48.120Z,10.53
2018-06-16T00:08:15.555Z,10.73
2018-06-16T00:10:42.944Z,10.13
2018-06-16T00:13:10.319Z,9.67
2018-06-16T00:15:37.758Z,13.30
2018-06-16T00:18:05.186Z,11.57
2018-06-16T00:20:32.632Z,11.27
2018-06-16T00:23:00.021Z,16.23
2018-06-16T00:25:27.399Z,13.60
2018-06-16T00:27:54.792Z,14.80
2018-06-16T00:30:22.184Z,12.27
2018-06-16T00:32:49.555Z,12.13
2018-06-16T00:35:16.936Z,12.90
2018-06-16T00:37:44.316Z,13.73
2018-06-16T00:40:11.759Z,13.03
2018-06-16T00:42:39.155Z,13.73
2018-06-16T00:45:06.592Z,12.17
2018-06-16T00:47:34.011Z,11.33
2018-06-16T00:50:01.419Z,12.03
2018-06-16T00:52:28.799Z,16.87
2018-06-16T00:54:56.195Z,12.80
2018-06-16T00:57:35.079Z,13.47
2018-06-16T01:00:02.587Z,13.33
2018-06-16T01:02:29.999Z,13.07
2018-06-16T01:04:57.415Z,12.30
2018-06-16T01:07:24.806Z,12.20
2018-06-16T01:09:52.436Z,11.97
2018-06-16T01:12:19.836Z,11.90
2018-06-16T01:14:47.202Z,12.17
2018-06-16T01:17:14.618Z,11.87
2018-06-16T01:19:42.060Z,12.23
2018-06-16T01:22:09.456Z,11.77
2018-06-16T01:24:36.839Z,10.83
2018-06-16T01:27:04.287Z,11.03
2018-06-16T01:29:31.680Z,13.10
2018-06-16T01:31:59.056Z,13.07
2018-06-16T01:34:26.466Z,10.67
2018-06-16T01:36:53.859Z,12.83
2018-06-16T01:39:21.245Z,10.97
2018-06-16T01:41:48.705Z,9.90
2018-06-16T01:44:16.080Z,10.93
2018-06-16T01:46:43.487Z,10.57
2018-06-16T01:49:10.879Z,11.47
2018-06-16T01:51:38.258Z,12.77
2018-06-16T01:54:05.707Z,10.33
2018-06-16T01:56:33.108Z,14.30
2018-06-16T01:59:00.499Z,9.93
2018-06-16T02:01:27.888Z,9.47
2018-06-16T02:03:55.268Z,10.27
2018-06-16T02:06:22.650Z,11.37
2018-06-16T02:08:50.063Z,10.33
2018-06-16T02:11:17.433Z,9.83
2018-06-16T02:13:44.876Z,11.97
2018-06-16T02:16:12.269Z,11.27
2018-06-16T02:18:39.665Z,9.47
2018-06-16T02:21:07.031Z,10.50
2018-06-16T02:23:34.425Z,12.30
2018-06-16T02:26:01.791Z,11.47
2018-06-16T02:28:29.186Z,11.67
2018-06-16T02:30:56.585Z,11.07
2018-06-16T02:33:23.969Z,11.67
2018-06-16T02:35:51.342Z,17.70
2018-06-16T02:38:19.071Z,10.40
2018-06-16T02:40:46.463Z,10.10
2018-06-16T02:43:13.839Z,11.00
2018-06-16T02:45:41.224Z,9.40
2018-06-16T02:48:08.663Z,11.53
2018-06-16T02:50:36.205Z,12.27
2018-06-16T02:53:03.540Z,10.57
2018-06-16T02:55:30.937Z,10.57
2018-06-16T02:57:58.295Z,9.43
2018-06-16T03:00:25.707Z,11.90
2018-06-16T03:02:53.105Z,12.70
2018-06-16T03:05:20.511Z,14.63
2018-06-16T03:07:48.020Z,9.30
2018-06-16T03:10:15.479Z,10.10
2018-06-16T03:12:42.866Z,10.60
2018-06-16T03:15:10.316Z,11.40
2018-06-16T03:17:37.665Z,10.23
2018-06-16T03:20:05.494Z,11.70
2018-06-16T03:22:32.904Z,9.40
2018-06-16T03:25:00.305Z,9.87
2018-06-16T03:27:27.683Z,12.97
2018-06-16T03:29:55.071Z,11.97
2018-06-16T03:32:22.468Z,9.90
2018-06-16T03:34:49.844Z,11.47
2018-06-16T03:37:17.243Z,15.47
2018-06-16T03:39:44.638Z,12.57
2018-06-16T03:42:12.097Z,10.83
2018-06-16T03:44:39.660Z,11.33
2018-06-16T03:47:07.311Z,12.53
2018-06-16T03:49:34.724Z,12.10
2018-06-16T03:52:02.131Z,11.77
2018-06-16T03:54:29.524Z,14.97
2018-06-16T03:56:56.902Z,12.37
2018-06-16T03:59:24.314Z,13.37
2018-06-16T04:01:51.780Z,14.80
2018-06-16T04:04:19.152Z,12.20
2018-06-16T04:06:46.539Z,11.87
2018-06-16T04:09:13.927Z,12.67
2018-06-16T04:11:41.329Z,12.27
2018-06-16T04:14:08.712Z,12.27
2018-06-16T04:16:36.083Z,12.83
2018-06-16T04:19:03.567Z,13.70
2018-06-16T04:21:30.963Z,12.53
2018-06-16T04:23:58.544Z,15.97
2018-06-16T04:26:25.921Z,16.57
2018-06-16T04:28:53.352Z,14.67
2018-06-16T04:31:20.725Z,15.77
2018-06-16T04:33:48.109Z,11.97
2018-06-16T04:36:15.519Z,16.40
2018-06-16T04:38:42.887Z,17.13
2018-06-16T04:41:10.272Z,17.20
2018-06-16T04:43:37.680Z,17.10
2018-06-16T04:46:05.087Z,17.30
2018-06-16T04:48:32.484Z,17.50
2018-06-16T04:50:59.887Z,20.00
2018-06-16T04:53:27.300Z,20.83
2018-06-16T04:55:54.694Z,19.93
2018-06-16T04:58:22.092Z,19.97
2018-06-16T05:00:49.464Z,24.07
2018-06-16T05:03:16.843Z,21.20
2018-06-16T05:05:44.264Z,20.83
2018-06-16T05:08:11.642Z,21.03
2018-06-16T05:10:39.047Z,22.40
2018-06-16T05:13:06.443Z,24.33
2018-06-16T05:15:33.811Z,22.10
2018-06-16T05:18:01.208Z,23.23
2018-06-16T05:20:28.614Z,26.83
2018-06-16T05:22:55.999Z,25.50
2018-06-16T05:25:23.390Z,21.57
2018-06-16T05:27:50.896Z,22.00
2018-06-16T05:30:18.303Z,23.53
2018-06-16T05:32:45.694Z,23.00
2018-06-16T05:35:13.276Z,21.37
2018-06-16T05:37:40.660Z,24.13
2018-06-16T05:40:08.080Z,22.43
2018-06-16T05:42:35.533Z,25.37
2018-06-16T05:45:03.003Z,23.17
2018-06-16T05:47:30.390Z,22.27
2018-06-16T05:49:57.904Z,22.10
2018-06-16T05:52:25.330Z,23.63
2018-06-16T05:54:52.917Z,23.83
2018-06-16T05:57:20.404Z,22.10
2018-06-16T05:59:47.799Z,23.53
2018-06-16T06:02:15.199Z,25.10
2018-06-16T06:04:42.622Z,24.80
2018-06-16T06:07:10.057Z,21.63
2018-06-16T06:09:37.460Z,23.53
2018-06-16T06:12:04.873Z,24.17
2018-06-16T06:14:32.318Z,22.50
2018-06-16T06:16:59.739Z,24.40
2018-06-16T06:19:27.200Z,20.80
2018-06-16T06:21:54.613Z,21.60
2018-06-16T06:24:22.061Z,31.67
2018-06-16T06:26:49.646Z,20.63
2018-06-16T06:29:17.058Z,21.93
2018-06-16T06:31:44.462Z,21.73
2018-06-16T06:34:11.928Z,20.37
2018-06-16T06:36:39.347Z,19.90
2018-06-16T06:39:07.655Z,21.97
2018-06-16T06:41:35.163Z,17.73
2018-06-16T06:44:02.654Z,22.13
2018-06-16T06:46:30.061Z,23.20
2018-06-16T06:48:57.543Z,19.53
2018-06-16T06:51:24.953Z,20.37
2018-06-16T06:53:52.378Z,17.03
2018-06-16T06:56:19.790Z,18.60
2018-06-16T06:58:47.191Z,17.93
2018-06-16T07:01:14.610Z,20.43
2018-06-16T07:03:42.019Z,14.27
2018-06-16T07:06:09.407Z,19.73
2018-06-16T07:08:36.825Z,16.03
2018-06-16T07:11:04.217Z,22.10
2018-06-16T07:13:31.595Z,16.23
2018-06-16T07:15:59.050Z,17.37
2018-06-16T07:18:26.438Z,21.97
2018-06-16T07:20:53.911Z,17.00
2018-06-16T07:23:21.344Z,19.90
2018-06-16T07:25:48.739Z,17.33
2018-06-16T07:28:16.164Z,15.07
2018-06-16T07:30:43.704Z,16.87
2018-06-16T07:33:11.160Z,16.43
2018-06-16T07:35:38.608Z,15.27
2018-06-16T07:38:06.020Z,15.57
2018-06-16T07:40:33.507Z,14.03
2018-06-16T07:43:00.906Z,16.17
2018-06-16T07:45:28.320Z,15.90
2018-06-16T07:47:55.923Z,16.87
2018-06-16T07:50:23.339Z,16.00
2018-06-16T07:52:50.728Z,13.10
2018-06-16T07:55:18.151Z,14.83
2018-06-16T07:57:45.556Z,16.63
2018-06-16T08:00:12.963Z,13.20
2018-06-16T08:02:40.371Z,16.87
2018-06-16T08:05:08.115Z,13.27
2018-06-16T08:07:35.495Z,17.93
2018-06-16T08:10:02.983Z,12.03
2018-06-16T08:12:30.395Z,17.07
2018-06-16T08:14:57.763Z,14.97
2018-06-16T08:17:25.173Z,13.50
2018-06-16T08:19:52.586Z,14.37
2018-06-16T08:22:19.975Z,13.20
2018-06-16T08:24:47.360Z,13.73
2018-06-16T08:27:14.731Z,13.43
2018-06-16T08:29:42.122Z,14.07
2018-06-16T08:32:09.499Z,17.90
2018-06-16T08:34:36.923Z,16.77
2018-06-16T08:37:04.439Z,14.83
2018-06-16T08:39:31.911Z,10.63
2018-06-16T08:41:59.323Z,10.00
2018-06-16T08:44:26.702Z,12.37
2018-06-16T08:46:54.100Z,16.03
2018-06-16T08:49:21.486Z,9.60
2018-06-16T08:51:48.942Z,16.47
2018-06-16T08:54:16.335Z,13.30
2018-06-16T08:56:43.724Z,11.13
2018-06-16T08:59:11.147Z,13.63
2018-06-16T09:01:38.551Z,12.90
2018-06-16T09:04:05.927Z,14.90
2018-06-16T09:06:33.339Z,12.50
2018-06-16T09:09:00.723Z,13.27
2018-06-16T09:11:28.177Z,10.63
2018-06-16T09:13:55.564Z,14.93
2018-06-16T09:16:22.947Z,12.57
2018-06-16T09:18:50.323Z,10.80
2018-06-16T09:21:17.717Z,16.33
2018-06-16T09:23:45.109Z,14.93
2018-06-16T09:26:12.499Z,10.63
2018-06-16T09:28:39.863Z,16.42
2018-06-16T09:31:07.250Z,14.47
2018-06-16T09:33:34.627Z,12.27
2018-06-16T09:36:02.016Z,14.73
2018-06-16T09:38:29.415Z,10.90
2018-06-16T09:40:56.796Z,12.97
2018-06-16T09:43:24.194Z,13.37
2018-06-16T09:45:51.564Z,13.20
2018-06-16T09:48:19.008Z,11.97
2018-06-16T09:50:46.359Z,14.17
2018-06-16T09:53:13.740Z,12.50
2018-06-16T09:55:41.147Z,12.80
2018-06-16T09:58:08.538Z,13.78
2018-06-16T10:00:40.640Z,13.13
2018-06-16T10:03:08.908Z,9.83
2018-06-16T10:05:36.343Z,9.53
2018-06-16T10:08:03.762Z,11.63
2018-06-16T10:10:31.178Z,13.10
2018-06-16T10:12:58.584Z,8.60
2018-06-16T10:15:26.036Z,8.00
2018-06-16T10:17:57.539Z,10.57
2018-06-16T10:20:24.974Z,10.70
2018-06-16T10:22:52.389Z,5.73
2018-06-16T10:25:20.010Z,7.67
2018-06-16T10:27:47.471Z,10.50
2018-06-16T10:30:15.088Z,6.90
2018-06-16T10:32:42.497Z,7.28
2018-06-16T10:35:09.911Z,6.07
2018-06-16T10:37:37.314Z,5.77
2018-06-16T10:40:04.762Z,5.37
2018-06-16T10:42:32.533Z,7.80
2018-06-16T10:44:59.967Z,7.87
2018-06-16T10:47:27.387Z,6.03
2018-06-16T10:49:54.849Z,5.87
2018-06-16T10:52:22.558Z,7.90
2018-06-16T10:54:49.969Z,3.75
2018-06-16T10:57:17.412Z,6.93
2018-06-16T10:59:44.938Z,5.47
2018-06-16T11:02:12.602Z,6.70
2018-06-16T11:04:39.998Z,6.20
2018-06-16T11:07:07.521Z,4.97
2018-06-16T11:09:34.962Z,4.55
2018-06-16T11:12:02.457Z,9.35
2018-06-16T11:14:29.917Z,6.47
2018-06-16T11:16:57.314Z,6.08
2018-06-16T11:19:24.711Z,5.03
2018-06-16T11:21:52.132Z,5.25
2018-06-16T11:24:19.544Z,3.02
2018-06-16T11:26:46.927Z,3.83
2018-06-16T11:29:14.377Z,3.92
2018-06-16T11:31:41.833Z,4.50
2018-06-16T11:34:09.264Z,3.00
2018-06-16T11:36:36.685Z,5.33
2018-06-16T11:39:06.537Z,6.87
2018-06-16T11:41:34.000Z,4.70
2018-06-16T11:44:01.461Z,3.77
2018-06-16T11:46:28.911Z,5.70
2018-06-16T11:48:56.363Z,4.60
2018-06-16T11:51:23.800Z,6.37
2018-06-16T11:53:51.278Z,5.53
2018-06-16T11:56:18.691Z,5.97
2018-06-16T11:58:46.129Z,3.45
2018-06-16T12:01:13.543Z,5.25
2018-06-16T12:03:40.955Z,4.60
2018-06-16T12:06:08.370Z,3.87
2018-06-16T12:08:35.819Z,5.87
2018-06-16T12:11:03.226Z,3.08
2018-06-16T12:13:30.677Z,5.28
2018-06-16T12:15:58.426Z,5.90
2018-06-16T12:18:25.850Z,6.78
2018-06-16T12:20:54.423Z,3.65
2018-06-16T12:23:22.083Z,4.58
2018-06-16T12:25:49.503Z,5.50
2018-06-16T12:28:17.889Z,5.28
2018-06-16T12:30:45.438Z,4.00
2018-06-16T12:33:13.217Z,5.83
2018-06-16T12:35:40.789Z,3.87
2018-06-16T12:38:08.219Z,6.72
2018-06-16T12:40:35.627Z,4.53
2018-06-16T12:43:03.128Z,5.83
2018-06-16T12:45:30.571Z,4.78
2018-06-16T12:47:57.961Z,4.50
2018-06-16T12:50:25.432Z,5.08
2018-06-16T12:52:52.858Z,4.85
2018-06-16T12:55:20.284Z,6.40
2018-06-16T12:57:47.807Z,3.42
2018-06-16T13:00:15.222Z,5.30
2018-06-16T13:02:42.652Z,6.22
2018-06-16T13:05:10.127Z,5.12
2018-06-16T13:07:37.603Z,3.37
2018-06-16T13:10:05.027Z,5.67
2018-06-16T13:12:32.474Z,5.80
2018-06-16T13:14:59.943Z,4.05
2018-06-16T13:17:27.359Z,4.83
2018-06-16T13:19:54.891Z,3.02
2018-06-16T13:22:22.311Z,4.90
2018-06-16T13:24:49.744Z,6.65
2018-06-16T13:27:17.434Z,4.58
2018-06-16T13:29:44.948Z,5.40
2018-06-16T13:32:12.379Z,6.53
2018-06-16T13:34:39.763Z,4.80
2018-06-16T13:37:07.182Z,4.03
2018-06-16T13:39:34.613Z,6.83
2018-06-16T13:42:02.035Z,5.25
2018-06-16T13:44:29.507Z,5.95
2018-06-16T13:46:56.914Z,7.87
2018-06-16T13:49:24.306Z,4.28
2018-06-16T13:51:51.736Z,4.50
2018-06-16T13:54:19.142Z,4.03
2018-06-16T13:56:46.566Z,4.35
2018-06-16T13:59:13.991Z,3.95
2018-06-16T14:01:41.387Z,6.10
2018-06-16T14:04:08.780Z,3.47
2018-06-16T14:06:36.191Z,6.45
2018-06-16T14:09:06.375Z,5.85
2018-06-16T14:11:33.773Z,4.90
2018-06-16T14:14:01.203Z,3.98
2018-06-16T14:16:28.611Z,4.72
2018-06-16T14:18:56.004Z,5.83
2018-06-16T14:21:23.413Z,5.03
2018-06-16T14:23:50.819Z,4.83
2018-06-16T14:26:18.322Z,6.43
2018-06-16T14:28:45.753Z,4.37
2018-06-16T14:31:13.147Z,4.58
2018-06-16T14:33:40.542Z,4.58
2018-06-16T14:36:08.009Z,4.20
2018-06-16T14:38:35.421Z,4.72
2018-06-16T14:41:02.850Z,3.47
2018-06-16T14:43:30.287Z,4.45
2018-06-16T14:45:57.699Z,4.12
2018-06-16T14:48:25.088Z,4.00
2018-06-16T14:50:52.849Z,5.60
2018-06-16T14:53:20.269Z,4.72
2018-06-16T14:55:47.660Z,4.58
2018-06-16T14:58:15.255Z,4.67
2018-06-16T15:00:43.488Z,5.03
2018-06-16T15:03:10.886Z,4.80
2018-06-16T15:05:38.299Z,5.60
2018-06-16T15:08:05.695Z,5.03
2018-06-16T15:10:33.162Z,5.40
2018-06-16T15:13:00.554Z,7.00
2018-06-16T15:15:27.949Z,5.75
2018-06-16T15:17:55.346Z,4.43
2018-06-16T15:20:22.758Z,4.63
2018-06-16T15:22:50.436Z,6.53
2018-06-16T15:25:17.833Z,4.27
2018-06-16T15:27:45.235Z,3.87
2018-06-16T15:30:12.631Z,4.90
2018-06-16T15:32:40.119Z,4.10
2018-06-16T15:35:07.539Z,10.47
2018-06-16T15:37:34.931Z,6.37
2018-06-16T15:40:02.548Z,3.60
2018-06-16T15:42:30.022Z,3.30
2018-06-16T15:44:57.397Z,4.80
2018-06-16T15:47:24.820Z,4.43
2018-06-16T15:49:52.203Z,8.53
2018-06-16T15:52:19.597Z,4.60
2018-06-16T15:54:47.007Z,3.37
2018-06-16T15:57:14.454Z,9.83
2018-06-16T15:59:41.816Z,7.17
2018-06-16T16:02:09.234Z,9.97
2018-06-16T16:04:36.635Z,7.90
2018-06-16T16:07:04.140Z,12.70
2018-06-16T16:09:31.542Z,10.63
2018-06-16T16:11:58.935Z,11.33
2018-06-16T16:14:26.370Z,12.10
2018-06-16T16:16:53.768Z,11.37
2018-06-16T16:19:21.173Z,12.53
2018-06-16T16:21:48.587Z,14.00
2018-06-16T16:24:16.191Z,11.00
2018-06-16T16:26:43.725Z,12.23
2018-06-16T16:29:11.212Z,13.43
2018-06-16T16:31:38.632Z,12.50
2018-06-16T16:34:06.058Z,14.67
2018-06-16T16:36:33.487Z,10.47
2018-06-16T16:39:00.893Z,14.20
2018-06-16T16:41:28.290Z,14.37
2018-06-16T16:43:55.723Z,13.30
2018-06-16T16:46:23.166Z,13.00
2018-06-16T16:48:50.513Z,11.47
2018-06-16T16:51:17.911Z,13.67
2018-06-16T16:53:45.362Z,11.33
2018-06-16T16:56:12.785Z,10.93
2018-06-16T16:58:40.208Z,9.87
2018-06-16T17:01:07.597Z,11.27
2018-06-16T17:03:35.021Z,9.07
2018-06-16T17:06:02.444Z,13.47
2018-06-16T17:08:29.823Z,11.93
2018-06-16T17:10:57.458Z,12.00
2018-06-16T17:13:24.879Z,12.33
2018-06-16T17:15:52.306Z,13.23
2018-06-16T17:18:19.731Z,17.63
2018-06-16T17:20:47.138Z,10.67
2018-06-16T17:23:14.539Z,9.07
2018-06-16T17:25:41.936Z,14.53
2018-06-16T17:28:09.335Z,16.53
2018-06-16T17:30:36.754Z,10.83
2018-06-16T17:33:04.281Z,12.43
2018-06-16T17:35:31.668Z,10.17
2018-06-16T17:37:59.083Z,10.90
2018-06-16T17:40:26.499Z,7.80
2018-06-16T17:42:53.922Z,9.87
2018-06-16T17:45:21.344Z,9.27
2018-06-16T17:47:48.760Z,10.23
2018-06-16T17:50:16.166Z,9.57
2018-06-16T17:52:43.735Z,8.67
2018-06-16T17:55:11.201Z,13.50
2018-06-16T17:57:38.604Z,8.43
2018-06-16T18:00:06.608Z,9.40
2018-06-16T18:02:34.123Z,10.07
2018-06-16T18:05:01.668Z,10.07
2018-06-16T18:07:29.202Z,8.37
2018-06-16T18:09:56.655Z,8.60
2018-06-16T18:12:24.557Z,11.63
2018-06-16T18:14:52.051Z,10.57
2018-06-16T18:17:19.477Z,7.17
2018-06-16T18:19:46.953Z,8.03
2018-06-16T18:22:14.375Z,8.70
2018-06-16T18:24:41.759Z,7.30
2018-06-16T18:27:09.182Z,8.50
2018-06-16T18:29:36.554Z,8.03
2018-06-16T18:32:04.008Z,9.73
2018-06-16T18:34:31.428Z,8.97
2018-06-16T18:36:58.902Z,8.80
2018-06-16T18:39:26.302Z,9.03
2018-06-16T18:41:54.531Z,7.07
2018-06-16T18:44:21.948Z,9.63
2018-06-16T18:46:49.328Z,7.60
2018-06-16T18:49:16.719Z,7.27
2018-06-16T18:51:44.437Z,9.70
2018-06-16T18:54:11.830Z,8.07
2018-06-16T18:56:39.240Z,5.60
2018-06-16T18:59:06.656Z,7.10
2018-06-16T19:01:34.063Z,5.90
2018-06-16T19:04:01.447Z,7.93
2018-06-16T19:06:28.985Z,5.60
2018-06-16T19:08:56.434Z,8.63
2018-06-16T19:11:23.835Z,7.17
2018-06-16T19:13:51.263Z,5.53
2018-06-16T19:16:18.680Z,6.27
2018-06-16T19:18:46.104Z,7.60
2018-06-16T19:21:13.520Z,7.57
2018-06-16T19:23:40.971Z,5.50
2018-06-16T19:26:08.348Z,6.17
2018-06-16T19:28:35.748Z,7.10
2018-06-16T19:31:03.415Z,5.37
2018-06-16T19:33:30.831Z,7.07
2018-06-16T19:35:58.443Z,8.03
2018-06-16T19:38:25.844Z,6.63
2018-06-16T19:40:53.453Z,6.20
2018-06-16T19:43:20.906Z,7.20
2018-06-16T19:45:48.285Z,5.07
2018-06-16T19:48:15.680Z,4.57
2018-06-16T19:50:43.153Z,5.10
2018-06-16T19:53:10.575Z,5.17
2018-06-16T19:55:37.952Z,4.93
2018-06-16T19:58:05.332Z,8.57
2018-06-16T20:00:32.735Z,4.77
2018-06-16T20:03:00.175Z,7.70
2018-06-16T20:05:27.571Z,5.17
2018-06-16T20:07:55.017Z,5.93
2018-06-16T20:10:22.400Z,3.57
2018-06-16T20:12:49.790Z,5.13
2018-06-16T20:15:17.204Z,4.70
2018-06-16T20:17:44.594Z,5.50
2018-06-16T20:20:12.016Z,5.43
2018-06-16T20:22:39.447Z,3.40
2018-06-16T20:25:07.053Z,7.27
2018-06-16T20:27:34.600Z,3.60
2018-06-16T20:30:02.001Z,6.53
2018-06-16T20:32:29.390Z,5.83
2018-06-16T20:34:56.835Z,6.87
2018-06-16T20:37:24.286Z,3.57
2018-06-16T20:39:53.742Z,5.67
2018-06-16T20:42:21.709Z,3.60
2018-06-16T20:44:49.665Z,3.57
2018-06-16T20:47:17.052Z,4.40
2018-06-16T20:49:44.444Z,4.63
2018-06-16T20:52:11.991Z,3.47
2018-06-16T20:54:40.436Z,4.17
2018-06-16T20:57:07.876Z,4.20
2018-06-16T20:59:35.495Z,3.13
2018-06-16T21:02:02.968Z,4.10
2018-06-16T21:04:30.355Z,4.73
2018-06-16T21:06:57.752Z,3.83
2018-06-16T21:09:25.191Z,5.73
2018-06-16T21:11:52.573Z,4.10
2018-06-16T21:14:19.960Z,6.53
2018-06-16T21:16:47.435Z,4.33
2018-06-16T21:19:14.872Z,4.73
2018-06-16T21:21:42.289Z,3.30
2018-06-16T21:24:10.102Z,5.70
2018-06-16T21:26:37.528Z,6.40
2018-06-16T21:29:05.122Z,6.97
2018-06-16T21:31:32.500Z,4.27
2018-06-16T21:33:59.956Z,3.13
2018-06-16T21:36:27.362Z,3.00
2018-06-16T21:38:54.760Z,2.90
2018-06-16T21:41:22.167Z,5.60
2018-06-16T21:43:49.538Z,3.57
2018-06-16T21:46:16.943Z,4.37
2018-06-16T21:48:44.350Z,3.93
2018-06-16T21:51:11.726Z,3.93
2018-06-16T21:53:39.203Z,4.43
2018-06-16T21:56:06.593Z,4.33
2018-06-16T21:58:34.079Z,4.47
2018-06-16T22:01:01.591Z,3.37
2018-06-16T22:03:29.036Z,5.07
2018-06-16T22:05:56.431Z,3.90
2018-06-16T22:08:29.665Z,7.03
2018-06-16T22:10:57.011Z,5.63
2018-06-16T22:13:24.420Z,4.37
2018-06-16T22:15:51.844Z,6.00
2018-06-16T22:18:19.223Z,4.27
2018-06-16T22:20:46.627Z,6.93
2018-06-16T22:23:14.030Z,4.70
2018-06-16T22:25:41.448Z,6.00
2018-06-16T22:28:08.835Z,5.77
2018-06-16T22:30:36.283Z,8.07
2018-06-16T22:33:03.830Z,5.27
2018-06-16T22:35:31.261Z,6.37
2018-06-16T22:37:58.674Z,5.60
2018-06-16T22:40:26.094Z,7.10
2018-06-16T22:42:53.447Z,7.40
2018-06-16T22:45:20.904Z,6.40
2018-06-16T22:47:48.319Z,8.60
2018-06-16T22:50:15.741Z,6.73
2018-06-16T22:52:43.170Z,6.57
2018-06-16T22:55:10.734Z,8.47
2018-06-16T22:57:38.172Z,7.97
2018-06-16T23:00:05.615Z,6.30
2018-06-16T23:02:32.927Z,7.53
2018-06-16T23:05:00.336Z,9.30
2018-06-16T23:07:27.733Z,8.20
2018-06-16T23:09:55.121Z,7.43
2018-06-16T23:12:22.520Z,6.27
2018-06-16T23:14:49.935Z,7.70
2018-06-16T23:17:17.335Z,6.97
2018-06-16T23:19:44.755Z,6.83
2018-06-16T23:22:12.125Z,5.77
2018-06-16T23:24:39.497Z,9.03
2018-06-16T23:27:07.051Z,9.87
2018-06-16T23:29:34.620Z,6.47
2018-06-16T23:32:02.017Z,8.80
2018-06-16T23:34:29.415Z,8.93
2018-06-16T23:36:56.835Z,7.00
2018-06-16T23:39:24.211Z,12.23
2018-06-16T23:41:51.644Z,10.80
2018-06-16T23:44:19.048Z,6.87
2018-06-16T23:46:46.470Z,7.57
2018-06-16T23:49:13.864Z,7.40
2018-06-16T23:51:41.280Z,6.40
2018-06-16T23:54:08.668Z,7.03
2018-06-16T23:56:36.059Z,8.17
2018-06-16T23:59:03.451Z,4.53
